sensor_id;sensor_type;location;lat;lon;timestamp;P1;durP1;ratioP1;P2;durP2;ratioP2
2976;SDS011;1498;51.500;7.440;2023-02-26T00:01:37;2.97;;;1.93;;
2976;SDS011;1498;51.500;7.440;2023-02-26T00:04:03;2.63;;;1.93;;
2976;SDS011;1498;51.500;7.440;2023-02-26T00:06:31;12.00;;;4.07;;
2976;SDS011;1498;51.500;7.440;2023-02-26T00:08:58;4.63;;;2.30;;
2976;SDS011;1498;51.500;7.440;2023-02-26T00:11:24;3.03;;;2.00;;
2976;SDS011;1498;51.500;7.440;2023-02-26T00:13:50;2.07;;;1.60;;
2976;SDS011;1498;51.500;7.440;2023-02-26T00:16:23;4.23;;;1.77;;
2976;SDS011;1498;51.500;7.440;2023-02-26T00:18:52;4.37;;;2.10;;
2976;SDS011;1498;51.500;7.440;2023-02-26T00:21:19;8.63;;;3.20;;
2976;SDS011;1498;51.500;7.440;2023-02-26T00:23:45;3.40;;;1.93;;
2976;SDS011;1498;51.500;7.440;2023-02-26T00:26:11;2.93;;;1.63;;
2976;SDS011;1498;51.500;7.440;2023-02-26T00:28:37;5.67;;;2.50;;
2976;SDS011;1498;51.500;7.440;2023-02-26T00:31:03;6.10;;;2.43;;
2976;SDS011;1498;51.500;7.440;2023-02-26T00:33:29;5.63;;;2.10;;
2976;SDS011;1498;51.500;7.440;2023-02-26T00:35:55;5.33;;;3.87;;
2976;SDS011;1498;51.500;7.440;2023-02-26T00:38:27;3.87;;;2.47;;
2976;SDS011;1498;51.500;7.440;2023-02-26T00:40:57;10.53;;;2.20;;
2976;SDS011;1498;51.500;7.440;2023-02-26T00:43:23;4.03;;;2.80;;
2976;SDS011;1498;51.500;7.440;2023-02-26T00:46:33;8.73;;;2.03;;
2976;SDS011;1498;51.500;7.440;2023-02-26T00:51:54;6.00;;;2.83;;
2976;SDS011;1498;51.500;7.440;2023-02-26T00:54:24;6.60;;;2.00;;
2976;SDS011;1498;51.500;7.440;2023-02-26T00:56:51;4.67;;;2.23;;
2976;SDS011;1498;51.500;7.440;2023-02-26T00:59:18;4.10;;;2.40;;
2976;SDS011;1498;51.500;7.440;2023-02-26T01:01:45;4.23;;;2.17;;
2976;SDS011;1498;51.500;7.440;2023-02-26T01:04:11;4.37;;;2.20;;
2976;SDS011;1498;51.500;7.440;2023-02-26T01:06:41;4.60;;;1.87;;
2976;SDS011;1498;51.500;7.440;2023-02-26T01:09:24;4.90;;;2.00;;
2976;SDS011;1498;51.500;7.440;2023-02-26T01:11:52;3.33;;;2.03;;
2976;SDS011;1498;51.500;7.440;2023-02-26T01:14:19;11.63;;;2.37;;
2976;SDS011;1498;51.500;7.440;2023-02-26T01:19:55;7.17;;;2.87;;
2976;SDS011;1498;51.500;7.440;2023-02-26T01:22:34;4.07;;;2.07;;
2976;SDS011;1498;51.500;7.440;2023-02-26T01:25:20;3.57;;;2.03;;
2976;SDS011;1498;51.500;7.440;2023-02-26T01:27:52;6.80;;;2.40;;
2976;SDS011;1498;51.500;7.440;2023-02-26T01:30:20;4.23;;;1.93;;
2976;SDS011;1498;51.500;7.440;2023-02-26T01:35:42;3.40;;;1.50;;
2976;SDS011;1498;51.500;7.440;2023-02-26T01:41:16;3.60;;;2.10;;
2976;SDS011;1498;51.500;7.440;2023-02-26T01:43:50;5.27;;;2.23;;
2976;SDS011;1498;51.500;7.440;2023-02-26T01:49:21;7.00;;;2.30;;
2976;SDS011;1498;51.500;7.440;2023-02-26T01:51:49;3.53;;;2.03;;
2976;SDS011;1498;51.500;7.440;2023-02-26T01:54:20;5.60;;;2.27;;
2976;SDS011;1498;51.500;7.440;2023-02-26T01:56:53;6.33;;;2.70;;
2976;SDS011;1498;51.500;7.440;2023-02-26T01:59:23;3.30;;;2.17;;
2976;SDS011;1498;51.500;7.440;2023-02-26T02:01:50;5.97;;;2.43;;
2976;SDS011;1498;51.500;7.440;2023-02-26T02:04:17;2.70;;;1.37;;
2976;SDS011;1498;51.500;7.440;2023-02-26T02:06:44;12.40;;;1.67;;
2976;SDS011;1498;51.500;7.440;2023-02-26T02:09:11;5.27;;;2.20;;
2976;SDS011;1498;51.500;7.440;2023-02-26T02:11:45;4.23;;;2.40;;
2976;SDS011;1498;51.500;7.440;2023-02-26T02:16:47;3.83;;;2.50;;
2976;SDS011;1498;51.500;7.440;2023-02-26T02:19:32;4.50;;;1.87;;
2976;SDS011;1498;51.500;7.440;2023-02-26T02:32:37;3.37;;;2.50;;
2976;SDS011;1498;51.500;7.440;2023-02-26T02:35:11;3.50;;;1.50;;
2976;SDS011;1498;51.500;7.440;2023-02-26T02:37:56;3.50;;;1.80;;
2976;SDS011;1498;51.500;7.440;2023-02-26T02:40:36;2.60;;;1.90;;
2976;SDS011;1498;51.500;7.440;2023-02-26T02:43:08;6.90;;;1.90;;
2976;SDS011;1498;51.500;7.440;2023-02-26T02:48:38;3.93;;;1.60;;
2976;SDS011;1498;51.500;7.440;2023-02-26T02:51:10;3.37;;;1.90;;
2976;SDS011;1498;51.500;7.440;2023-02-26T02:56:11;7.43;;;2.20;;
2976;SDS011;1498;51.500;7.440;2023-02-26T02:58:45;6.40;;;2.00;;
2976;SDS011;1498;51.500;7.440;2023-02-26T03:01:17;2.60;;;1.70;;
2976;SDS011;1498;51.500;7.440;2023-02-26T03:06:46;7.20;;;1.67;;
2976;SDS011;1498;51.500;7.440;2023-02-26T03:09:14;4.00;;;1.40;;
2976;SDS011;1498;51.500;7.440;2023-02-26T03:11:39;6.90;;;2.17;;
2976;SDS011;1498;51.500;7.440;2023-02-26T03:14:05;8.77;;;2.30;;
2976;SDS011;1498;51.500;7.440;2023-02-26T03:19:17;2.97;;;1.67;;
2976;SDS011;1498;51.500;7.440;2023-02-26T03:30:47;5.20;;;2.13;;
2976;SDS011;1498;51.500;7.440;2023-02-26T03:33:27;5.50;;;2.37;;
2976;SDS011;1498;51.500;7.440;2023-02-26T03:36:18;7.43;;;2.47;;
2976;SDS011;1498;51.500;7.440;2023-02-26T03:38:52;5.20;;;1.43;;
2976;SDS011;1498;51.500;7.440;2023-02-26T05:31:47;3.73;;;1.70;;
2976;SDS011;1498;51.500;7.440;2023-02-26T05:34:13;3.17;;;1.80;;
2976;SDS011;1498;51.500;7.440;2023-02-26T05:36:39;4.30;;;1.90;;
2976;SDS011;1498;51.500;7.440;2023-02-26T05:39:04;9.03;;;1.87;;
2976;SDS011;1498;51.500;7.440;2023-02-26T05:41:30;2.97;;;1.90;;
2976;SDS011;1498;51.500;7.440;2023-02-26T05:43:55;3.43;;;1.73;;
2976;SDS011;1498;51.500;7.440;2023-02-26T05:46:21;3.10;;;2.13;;
2976;SDS011;1498;51.500;7.440;2023-02-26T05:48:46;5.23;;;1.77;;
2976;SDS011;1498;51.500;7.440;2023-02-26T05:51:12;4.80;;;2.90;;
2976;SDS011;1498;51.500;7.440;2023-02-26T05:53:37;4.03;;;1.83;;
2976;SDS011;1498;51.500;7.440;2023-02-26T05:56:03;3.63;;;1.90;;
2976;SDS011;1498;51.500;7.440;2023-02-26T05:58:29;4.60;;;1.93;;
2976;SDS011;1498;51.500;7.440;2023-02-26T06:00:57;4.60;;;1.73;;
2976;SDS011;1498;51.500;7.440;2023-02-26T06:03:23;3.27;;;2.00;;
2976;SDS011;1498;51.500;7.440;2023-02-26T06:05:49;3.40;;;1.80;;
2976;SDS011;1498;51.500;7.440;2023-02-26T06:08:15;1.60;;;1.27;;
2976;SDS011;1498;51.500;7.440;2023-02-26T06:10:41;3.23;;;1.77;;
2976;SDS011;1498;51.500;7.440;2023-02-26T06:13:07;3.20;;;1.80;;
2976;SDS011;1498;51.500;7.440;2023-02-26T06:15:32;6.37;;;2.03;;
2976;SDS011;1498;51.500;7.440;2023-02-26T06:17:58;13.83;;;2.40;;
2976;SDS011;1498;51.500;7.440;2023-02-26T06:20:23;3.40;;;2.30;;
2976;SDS011;1498;51.500;7.440;2023-02-26T06:22:49;4.93;;;1.80;;
2976;SDS011;1498;51.500;7.440;2023-02-26T06:25:15;5.57;;;2.53;;
2976;SDS011;1498;51.500;7.440;2023-02-26T06:27:40;5.23;;;2.13;;
2976;SDS011;1498;51.500;7.440;2023-02-26T06:30:06;4.27;;;1.90;;
2976;SDS011;1498;51.500;7.440;2023-02-26T06:32:32;4.10;;;1.73;;
2976;SDS011;1498;51.500;7.440;2023-02-26T06:34:58;4.40;;;1.30;;
2976;SDS011;1498;51.500;7.440;2023-02-26T06:37:23;2.33;;;1.50;;
2976;SDS011;1498;51.500;7.440;2023-02-26T06:39:49;5.20;;;1.63;;
2976;SDS011;1498;51.500;7.440;2023-02-26T06:42:14;2.90;;;2.17;;
2976;SDS011;1498;51.500;7.440;2023-02-26T06:44:40;1.47;;;1.37;;
2976;SDS011;1498;51.500;7.440;2023-02-26T06:47:05;2.60;;;1.80;;
2976;SDS011;1498;51.500;7.440;2023-02-26T06:49:31;4.40;;;2.03;;
2976;SDS011;1498;51.500;7.440;2023-02-26T06:51:57;2.60;;;1.30;;
2976;SDS011;1498;51.500;7.440;2023-02-26T06:54:23;3.60;;;1.87;;
2976;SDS011;1498;51.500;7.440;2023-02-26T06:56:48;6.00;;;2.50;;
2976;SDS011;1498;51.500;7.440;2023-02-26T06:59:14;3.13;;;1.53;;
2976;SDS011;1498;51.500;7.440;2023-02-26T07:01:40;2.37;;;1.57;;
2976;SDS011;1498;51.500;7.440;2023-02-26T07:04:05;7.60;;;2.20;;
2976;SDS011;1498;51.500;7.440;2023-02-26T07:06:31;2.73;;;1.90;;
2976;SDS011;1498;51.500;7.440;2023-02-26T07:08:56;3.73;;;2.03;;
2976;SDS011;1498;51.500;7.440;2023-02-26T07:11:22;19.83;;;3.03;;
2976;SDS011;1498;51.500;7.440;2023-02-26T07:13:48;3.33;;;1.93;;
2976;SDS011;1498;51.500;7.440;2023-02-26T07:16:15;3.27;;;1.60;;
2976;SDS011;1498;51.500;7.440;2023-02-26T07:18:40;2.33;;;2.13;;
2976;SDS011;1498;51.500;7.440;2023-02-26T07:21:06;6.83;;;1.60;;
2976;SDS011;1498;51.500;7.440;2023-02-26T07:23:32;6.03;;;2.10;;
2976;SDS011;1498;51.500;7.440;2023-02-26T07:25:57;6.80;;;2.03;;
2976;SDS011;1498;51.500;7.440;2023-02-26T07:28:23;5.80;;;1.57;;
2976;SDS011;1498;51.500;7.440;2023-02-26T07:30:49;1.97;;;1.17;;
2976;SDS011;1498;51.500;7.440;2023-02-26T07:33:14;1.87;;;1.40;;
2976;SDS011;1498;51.500;7.440;2023-02-26T07:35:40;2.90;;;1.70;;
2976;SDS011;1498;51.500;7.440;2023-02-26T07:38:06;3.60;;;1.80;;
2976;SDS011;1498;51.500;7.440;2023-02-26T07:40:32;7.60;;;1.90;;
2976;SDS011;1498;51.500;7.440;2023-02-26T07:42:57;4.83;;;2.13;;
2976;SDS011;1498;51.500;7.440;2023-02-26T07:45:23;2.67;;;1.67;;
2976;SDS011;1498;51.500;7.440;2023-02-26T07:47:49;2.03;;;1.70;;
2976;SDS011;1498;51.500;7.440;2023-02-26T07:50:16;4.07;;;2.00;;
2976;SDS011;1498;51.500;7.440;2023-02-26T07:52:42;7.67;;;2.20;;
2976;SDS011;1498;51.500;7.440;2023-02-26T07:55:08;3.13;;;2.20;;
2976;SDS011;1498;51.500;7.440;2023-02-26T07:57:34;4.37;;;1.40;;
2976;SDS011;1498;51.500;7.440;2023-02-26T07:59:59;4.87;;;1.60;;
2976;SDS011;1498;51.500;7.440;2023-02-26T08:02:25;3.27;;;1.70;;
2976;SDS011;1498;51.500;7.440;2023-02-26T08:04:51;5.37;;;2.10;;
2976;SDS011;1498;51.500;7.440;2023-02-26T08:07:17;10.27;;;2.47;;
2976;SDS011;1498;51.500;7.440;2023-02-26T08:09:42;4.57;;;2.03;;
2976;SDS011;1498;51.500;7.440;2023-02-26T08:12:09;4.73;;;1.70;;
2976;SDS011;1498;51.500;7.440;2023-02-26T08:14:34;3.50;;;2.00;;
2976;SDS011;1498;51.500;7.440;2023-02-26T08:17:00;3.60;;;2.47;;
2976;SDS011;1498;51.500;7.440;2023-02-26T08:19:25;4.00;;;1.83;;
2976;SDS011;1498;51.500;7.440;2023-02-26T08:21:51;2.50;;;2.10;;
2976;SDS011;1498;51.500;7.440;2023-02-26T08:24:19;5.57;;;2.37;;
2976;SDS011;1498;51.500;7.440;2023-02-26T08:26:44;7.70;;;2.03;;
2976;SDS011;1498;51.500;7.440;2023-02-26T08:29:10;4.80;;;2.13;;
2976;SDS011;1498;51.500;7.440;2023-02-26T08:31:36;2.40;;;1.67;;
2976;SDS011;1498;51.500;7.440;2023-02-26T08:34:02;3.53;;;1.70;;
2976;SDS011;1498;51.500;7.440;2023-02-26T08:36:28;6.20;;;1.73;;
2976;SDS011;1498;51.500;7.440;2023-02-26T08:38:54;3.40;;;1.90;;
2976;SDS011;1498;51.500;7.440;2023-02-26T08:41:19;5.00;;;3.00;;
2976;SDS011;1498;51.500;7.440;2023-02-26T08:43:46;6.70;;;2.20;;
2976;SDS011;1498;51.500;7.440;2023-02-26T08:46:11;6.27;;;2.00;;
2976;SDS011;1498;51.500;7.440;2023-02-26T08:48:37;6.00;;;2.13;;
2976;SDS011;1498;51.500;7.440;2023-02-26T08:51:02;5.87;;;2.00;;
2976;SDS011;1498;51.500;7.440;2023-02-26T08:53:28;3.17;;;1.50;;
2976;SDS011;1498;51.500;7.440;2023-02-26T08:55:53;3.60;;;2.07;;
2976;SDS011;1498;51.500;7.440;2023-02-26T08:58:19;7.80;;;2.73;;
2976;SDS011;1498;51.500;7.440;2023-02-26T09:00:45;5.23;;;1.90;;
2976;SDS011;1498;51.500;7.440;2023-02-26T09:03:11;5.27;;;1.73;;
2976;SDS011;1498;51.500;7.440;2023-02-26T09:05:37;3.50;;;1.50;;
2976;SDS011;1498;51.500;7.440;2023-02-26T09:08:03;3.03;;;1.43;;
2976;SDS011;1498;51.500;7.440;2023-02-26T09:10:29;2.47;;;1.80;;
2976;SDS011;1498;51.500;7.440;2023-02-26T09:12:54;2.33;;;1.80;;
2976;SDS011;1498;51.500;7.440;2023-02-26T09:15:20;2.10;;;1.30;;
2976;SDS011;1498;51.500;7.440;2023-02-26T09:17:46;2.47;;;1.50;;
2976;SDS011;1498;51.500;7.440;2023-02-26T09:20:12;2.53;;;2.10;;
2976;SDS011;1498;51.500;7.440;2023-02-26T09:22:38;7.30;;;1.80;;
2976;SDS011;1498;51.500;7.440;2023-02-26T09:25:04;4.50;;;1.80;;
2976;SDS011;1498;51.500;7.440;2023-02-26T09:27:30;6.20;;;1.90;;
2976;SDS011;1498;51.500;7.440;2023-02-26T09:29:55;3.47;;;2.37;;
2976;SDS011;1498;51.500;7.440;2023-02-26T09:32:21;3.93;;;1.80;;
2976;SDS011;1498;51.500;7.440;2023-02-26T09:34:47;2.33;;;1.57;;
2976;SDS011;1498;51.500;7.440;2023-02-26T09:37:13;4.50;;;1.50;;
2976;SDS011;1498;51.500;7.440;2023-02-26T09:39:38;1.90;;;1.30;;
2976;SDS011;1498;51.500;7.440;2023-02-26T09:42:13;2.40;;;1.50;;
2976;SDS011;1498;51.500;7.440;2023-02-26T09:44:43;6.63;;;1.40;;
2976;SDS011;1498;51.500;7.440;2023-02-26T09:47:13;2.70;;;1.43;;
2976;SDS011;1498;51.500;7.440;2023-02-26T09:50:00;2.63;;;1.20;;
2976;SDS011;1498;51.500;7.440;2023-02-26T09:52:51;6.33;;;1.50;;
2976;SDS011;1498;51.500;7.440;2023-02-26T09:58:03;6.20;;;1.47;;
2976;SDS011;1498;51.500;7.440;2023-02-26T10:03:15;3.73;;;1.40;;
2976;SDS011;1498;51.500;7.440;2023-02-26T10:11:41;3.73;;;1.07;;
2976;SDS011;1498;51.500;7.440;2023-02-26T10:17:02;2.33;;;1.40;;
2976;SDS011;1498;51.500;7.440;2023-02-26T10:19:39;3.90;;;2.03;;
2976;SDS011;1498;51.500;7.440;2023-02-26T10:22:14;1.77;;;1.30;;
2976;SDS011;1498;51.500;7.440;2023-02-26T10:25:18;2.33;;;1.73;;
2976;SDS011;1498;51.500;7.440;2023-02-26T10:30:21;4.20;;;1.23;;
2976;SDS011;1498;51.500;7.440;2023-02-26T10:35:46;5.63;;;1.27;;
2976;SDS011;1498;51.500;7.440;2023-02-26T10:38:17;2.70;;;1.27;;
2976;SDS011;1498;51.500;7.440;2023-02-26T10:40:49;2.80;;;1.23;;
2976;SDS011;1498;51.500;7.440;2023-02-26T10:43:54;1.90;;;1.13;;
2976;SDS011;1498;51.500;7.440;2023-02-26T10:51:49;1.70;;;1.10;;
2976;SDS011;1498;51.500;7.440;2023-02-26T10:56:45;2.70;;;1.30;;
2976;SDS011;1498;51.500;7.440;2023-02-26T10:59:11;2.97;;;1.23;;
2976;SDS011;1498;51.500;7.440;2023-02-26T11:01:37;3.60;;;1.30;;
2976;SDS011;1498;51.500;7.440;2023-02-26T11:04:07;4.40;;;1.53;;
2976;SDS011;1498;51.500;7.440;2023-02-26T11:06:38;1.70;;;1.10;;
2976;SDS011;1498;51.500;7.440;2023-02-26T11:09:24;4.33;;;0.97;;
2976;SDS011;1498;51.500;7.440;2023-02-26T11:14:32;16.07;;;2.20;;
2976;SDS011;1498;51.500;7.440;2023-02-26T11:16:59;2.60;;;1.20;;
2976;SDS011;1498;51.500;7.440;2023-02-26T11:19:34;3.37;;;1.43;;
2976;SDS011;1498;51.500;7.440;2023-02-26T11:22:03;3.90;;;1.27;;
2976;SDS011;1498;51.500;7.440;2023-02-26T11:26:59;1.37;;;1.27;;
2976;SDS011;1498;51.500;7.440;2023-02-26T11:29:28;2.40;;;1.27;;
2976;SDS011;1498;51.500;7.440;2023-02-26T11:32:05;2.80;;;1.50;;
2976;SDS011;1498;51.500;7.440;2023-02-26T11:34:37;1.93;;;1.40;;
2976;SDS011;1498;51.500;7.440;2023-02-26T11:37:04;4.63;;;1.40;;
2976;SDS011;1498;51.500;7.440;2023-02-26T11:39:32;3.40;;;1.50;;
2976;SDS011;1498;51.500;7.440;2023-02-26T11:42:00;1.67;;;1.13;;
2976;SDS011;1498;51.500;7.440;2023-02-26T11:44:33;8.13;;;1.70;;
2976;SDS011;1498;51.500;7.440;2023-02-26T11:47:09;2.83;;;1.27;;
2976;SDS011;1498;51.500;7.440;2023-02-26T11:49:44;1.87;;;1.50;;
2976;SDS011;1498;51.500;7.440;2023-02-26T11:52:17;2.47;;;1.20;;
2976;SDS011;1498;51.500;7.440;2023-02-26T11:54:53;2.13;;;1.60;;
2976;SDS011;1498;51.500;7.440;2023-02-26T11:57:25;1.83;;;0.97;;
2976;SDS011;1498;51.500;7.440;2023-02-26T11:59:53;1.63;;;1.17;;
2976;SDS011;1498;51.500;7.440;2023-02-26T12:02:22;1.97;;;1.00;;
2976;SDS011;1498;51.500;7.440;2023-02-26T12:04:54;3.17;;;1.70;;
2976;SDS011;1498;51.500;7.440;2023-02-26T12:07:24;3.67;;;1.33;;
2976;SDS011;1498;51.500;7.440;2023-02-26T12:09:50;1.83;;;1.13;;
2976;SDS011;1498;51.500;7.440;2023-02-26T12:12:24;2.80;;;1.30;;
2976;SDS011;1498;51.500;7.440;2023-02-26T12:15:45;3.53;;;1.83;;
2976;SDS011;1498;51.500;7.440;2023-02-26T12:18:43;2.40;;;1.23;;
2976;SDS011;1498;51.500;7.440;2023-02-26T12:24:31;10.90;;;1.63;;
2976;SDS011;1498;51.500;7.440;2023-02-26T12:44:36;2.50;;;1.40;;
2976;SDS011;1498;51.500;7.440;2023-02-26T12:50:02;1.77;;;1.10;;
2976;SDS011;1498;51.500;7.440;2023-02-26T12:55:53;2.20;;;0.87;;
2976;SDS011;1498;51.500;7.440;2023-02-26T13:09:55;2.20;;;1.13;;
2976;SDS011;1498;51.500;7.440;2023-02-26T13:20:30;1.23;;;0.90;;
2976;SDS011;1498;51.500;7.440;2023-02-26T13:23:00;2.80;;;0.90;;
2976;SDS011;1498;51.500;7.440;2023-02-26T13:25:40;1.53;;;1.30;;
2976;SDS011;1498;51.500;7.440;2023-02-26T13:31:19;1.60;;;1.03;;
2976;SDS011;1498;51.500;7.440;2023-02-26T13:34:09;1.77;;;1.00;;
2976;SDS011;1498;51.500;7.440;2023-02-26T13:36:56;2.63;;;0.93;;
2976;SDS011;1498;51.500;7.440;2023-02-26T13:47:23;1.47;;;0.87;;
2976;SDS011;1498;51.500;7.440;2023-02-26T13:52:49;3.00;;;1.50;;
2976;SDS011;1498;51.500;7.440;2023-02-26T13:58:16;2.33;;;1.17;;
2976;SDS011;1498;51.500;7.440;2023-02-26T14:06:41;1.97;;;1.00;;
2976;SDS011;1498;51.500;7.440;2023-02-26T14:17:36;2.90;;;1.10;;
2976;SDS011;1498;51.500;7.440;2023-02-26T14:20:17;2.23;;;1.20;;
2976;SDS011;1498;51.500;7.440;2023-02-26T14:23:33;1.23;;;0.80;;
2976;SDS011;1498;51.500;7.440;2023-02-26T14:25:44;2.87;;;1.33;;
2976;SDS011;1498;51.500;7.440;2023-02-26T14:30:51;1.90;;;1.40;;
2976;SDS011;1498;51.500;7.440;2023-02-26T14:33:31;2.17;;;1.23;;
2976;SDS011;1498;51.500;7.440;2023-02-26T14:36:19;3.20;;;1.10;;
2976;SDS011;1498;51.500;7.440;2023-02-26T14:38:52;3.47;;;1.40;;
2976;SDS011;1498;51.500;7.440;2023-02-26T14:41:30;3.93;;;1.67;;
2976;SDS011;1498;51.500;7.440;2023-02-26T14:46:30;8.17;;;1.90;;
2976;SDS011;1498;51.500;7.440;2023-02-26T14:48:56;4.40;;;1.53;;
2976;SDS011;1498;51.500;7.440;2023-02-26T14:51:35;2.23;;;1.50;;
2976;SDS011;1498;51.500;7.440;2023-02-26T15:00:05;1.20;;;0.93;;
2976;SDS011;1498;51.500;7.440;2023-02-26T15:02:59;2.50;;;1.57;;
2976;SDS011;1498;51.500;7.440;2023-02-26T15:11:05;2.40;;;1.77;;
2976;SDS011;1498;51.500;7.440;2023-02-26T15:16:41;3.10;;;1.57;;
2976;SDS011;1498;51.500;7.440;2023-02-26T15:19:21;4.37;;;1.77;;
2976;SDS011;1498;51.500;7.440;2023-02-26T15:25:15;3.10;;;1.33;;
2976;SDS011;1498;51.500;7.440;2023-02-26T15:27:49;2.13;;;1.40;;
2976;SDS011;1498;51.500;7.440;2023-02-26T15:30:15;7.70;;;1.63;;
2976;SDS011;1498;51.500;7.440;2023-02-26T15:32:41;4.00;;;1.90;;
2976;SDS011;1498;51.500;7.440;2023-02-26T15:35:15;3.30;;;1.70;;
2976;SDS011;1498;51.500;7.440;2023-02-26T15:37:45;3.63;;;1.67;;
2976;SDS011;1498;51.500;7.440;2023-02-26T15:40:16;1.80;;;1.50;;
2976;SDS011;1498;51.500;7.440;2023-02-26T15:42:43;2.10;;;1.83;;
2976;SDS011;1498;51.500;7.440;2023-02-26T15:45:31;3.87;;;1.90;;
2976;SDS011;1498;51.500;7.440;2023-02-26T15:48:02;6.83;;;1.87;;
2976;SDS011;1498;51.500;7.440;2023-02-26T15:50:32;4.43;;;2.17;;
2976;SDS011;1498;51.500;7.440;2023-02-26T15:53:00;2.57;;;1.50;;
2976;SDS011;1498;51.500;7.440;2023-02-26T15:55:48;3.00;;;1.80;;
2976;SDS011;1498;51.500;7.440;2023-02-26T15:58:49;7.67;;;3.10;;
2976;SDS011;1498;51.500;7.440;2023-02-26T16:01:15;2.90;;;1.80;;
2976;SDS011;1498;51.500;7.440;2023-02-26T16:03:43;4.97;;;2.10;;
2976;SDS011;1498;51.500;7.440;2023-02-26T16:06:10;3.57;;;2.47;;
2976;SDS011;1498;51.500;7.440;2023-02-26T16:08:42;2.80;;;2.10;;
2976;SDS011;1498;51.500;7.440;2023-02-26T16:11:07;4.83;;;1.90;;
2976;SDS011;1498;51.500;7.440;2023-02-26T16:13:35;6.57;;;2.70;;
2976;SDS011;1498;51.500;7.440;2023-02-26T16:16:07;6.77;;;2.10;;
2976;SDS011;1498;51.500;7.440;2023-02-26T16:18:39;2.60;;;1.50;;
2976;SDS011;1498;51.500;7.440;2023-02-26T16:21:06;3.07;;;1.87;;
2976;SDS011;1498;51.500;7.440;2023-02-26T16:23:42;2.30;;;1.40;;
2976;SDS011;1498;51.500;7.440;2023-02-26T16:26:21;5.87;;;1.90;;
2976;SDS011;1498;51.500;7.440;2023-02-26T16:28:52;7.37;;;3.80;;
2976;SDS011;1498;51.500;7.440;2023-02-26T16:31:23;5.90;;;2.70;;
2976;SDS011;1498;51.500;7.440;2023-02-26T16:33:53;3.27;;;1.90;;
2976;SDS011;1498;51.500;7.440;2023-02-26T16:36:26;2.10;;;1.70;;
2976;SDS011;1498;51.500;7.440;2023-02-26T16:38:58;10.40;;;2.40;;
2976;SDS011;1498;51.500;7.440;2023-02-26T16:41:32;2.30;;;1.70;;
2976;SDS011;1498;51.500;7.440;2023-02-26T16:44:00;2.87;;;1.63;;
2976;SDS011;1498;51.500;7.440;2023-02-26T16:46:33;3.33;;;1.60;;
2976;SDS011;1498;51.500;7.440;2023-02-26T16:49:10;3.37;;;2.03;;
2976;SDS011;1498;51.500;7.440;2023-02-26T16:51:52;3.60;;;2.00;;
2976;SDS011;1498;51.500;7.440;2023-02-26T16:55:21;6.13;;;1.73;;
2976;SDS011;1498;51.500;7.440;2023-02-26T16:57:29;4.70;;;2.23;;
2976;SDS011;1498;51.500;7.440;2023-02-26T17:00:12;2.40;;;1.80;;
2976;SDS011;1498;51.500;7.440;2023-02-26T17:02:51;3.60;;;2.00;;
2976;SDS011;1498;51.500;7.440;2023-02-26T17:05:21;3.97;;;2.13;;
2976;SDS011;1498;51.500;7.440;2023-02-26T17:08:00;4.87;;;2.73;;
2976;SDS011;1498;51.500;7.440;2023-02-26T17:10:48;5.30;;;2.80;;
2976;SDS011;1498;51.500;7.440;2023-02-26T17:13:35;5.07;;;3.10;;
2976;SDS011;1498;51.500;7.440;2023-02-26T17:16:05;5.80;;;3.70;;
2976;SDS011;1498;51.500;7.440;2023-02-26T17:18:35;7.83;;;3.33;;
2976;SDS011;1498;51.500;7.440;2023-02-26T17:21:00;4.30;;;3.10;;
2976;SDS011;1498;51.500;7.440;2023-02-26T17:23:29;4.43;;;3.60;;
2976;SDS011;1498;51.500;7.440;2023-02-26T17:25:56;4.60;;;2.50;;
2976;SDS011;1498;51.500;7.440;2023-02-26T17:28:27;5.20;;;3.03;;
2976;SDS011;1498;51.500;7.440;2023-02-26T17:30:55;5.83;;;2.87;;
2976;SDS011;1498;51.500;7.440;2023-02-26T17:33:21;6.73;;;2.97;;
2976;SDS011;1498;51.500;7.440;2023-02-26T17:35:47;5.67;;;3.60;;
2976;SDS011;1498;51.500;7.440;2023-02-26T17:38:14;4.80;;;3.40;;
2976;SDS011;1498;51.500;7.440;2023-02-26T17:40:41;7.23;;;3.50;;
2976;SDS011;1498;51.500;7.440;2023-02-26T17:43:09;26.30;;;13.17;;
2976;SDS011;1498;51.500;7.440;2023-02-26T17:45:36;13.43;;;7.90;;
2976;SDS011;1498;51.500;7.440;2023-02-26T17:48:04;7.30;;;4.73;;
2976;SDS011;1498;51.500;7.440;2023-02-26T17:50:41;4.87;;;3.50;;
2976;SDS011;1498;51.500;7.440;2023-02-26T17:53:25;6.53;;;3.67;;
2976;SDS011;1498;51.500;7.440;2023-02-26T17:55:57;18.57;;;6.87;;
2976;SDS011;1498;51.500;7.440;2023-02-26T17:58:31;10.87;;;5.00;;
2976;SDS011;1498;51.500;7.440;2023-02-26T18:00:58;11.53;;;5.10;;
2976;SDS011;1498;51.500;7.440;2023-02-26T18:03:24;9.33;;;4.03;;
2976;SDS011;1498;51.500;7.440;2023-02-26T18:05:50;6.73;;;4.07;;
2976;SDS011;1498;51.500;7.440;2023-02-26T18:08:26;9.80;;;5.20;;
2976;SDS011;1498;51.500;7.440;2023-02-26T18:10:53;7.50;;;3.97;;
2976;SDS011;1498;51.500;7.440;2023-02-26T18:13:20;7.77;;;5.23;;
2976;SDS011;1498;51.500;7.440;2023-02-26T18:15:46;9.37;;;4.80;;
2976;SDS011;1498;51.500;7.440;2023-02-26T18:18:12;9.70;;;4.13;;
2976;SDS011;1498;51.500;7.440;2023-02-26T18:20:39;9.03;;;4.90;;
2976;SDS011;1498;51.500;7.440;2023-02-26T18:23:05;7.83;;;4.23;;
2976;SDS011;1498;51.500;7.440;2023-02-26T18:25:32;8.40;;;5.50;;
2976;SDS011;1498;51.500;7.440;2023-02-26T18:27:59;7.40;;;5.23;;
2976;SDS011;1498;51.500;7.440;2023-02-26T18:30:30;7.70;;;5.20;;
2976;SDS011;1498;51.500;7.440;2023-02-26T18:32:57;8.57;;;6.30;;
2976;SDS011;1498;51.500;7.440;2023-02-26T18:35:23;10.57;;;4.20;;
2976;SDS011;1498;51.500;7.440;2023-02-26T18:37:50;5.33;;;4.10;;
2976;SDS011;1498;51.500;7.440;2023-02-26T18:40:18;4.60;;;3.10;;
2976;SDS011;1498;51.500;7.440;2023-02-26T18:42:48;6.80;;;3.47;;
2976;SDS011;1498;51.500;7.440;2023-02-26T18:45:14;6.60;;;2.90;;
2976;SDS011;1498;51.500;7.440;2023-02-26T18:47:41;6.10;;;3.20;;
2976;SDS011;1498;51.500;7.440;2023-02-26T18:50:07;32.80;;;3.93;;
2976;SDS011;1498;51.500;7.440;2023-02-26T18:52:33;9.87;;;5.10;;
2976;SDS011;1498;51.500;7.440;2023-02-26T18:54:59;8.33;;;4.93;;
2976;SDS011;1498;51.500;7.440;2023-02-26T18:57:27;7.13;;;4.13;;
2976;SDS011;1498;51.500;7.440;2023-02-26T18:59:53;12.03;;;3.70;;
2976;SDS011;1498;51.500;7.440;2023-02-26T19:02:19;7.27;;;4.30;;
2976;SDS011;1498;51.500;7.440;2023-02-26T19:04:44;7.87;;;4.90;;
2976;SDS011;1498;51.500;7.440;2023-02-26T19:07:10;5.13;;;4.13;;
2976;SDS011;1498;51.500;7.440;2023-02-26T19:09:36;10.17;;;5.27;;
2976;SDS011;1498;51.500;7.440;2023-02-26T19:12:02;12.43;;;5.97;;
2976;SDS011;1498;51.500;7.440;2023-02-26T19:14:27;13.50;;;6.60;;
2976;SDS011;1498;51.500;7.440;2023-02-26T19:16:53;13.40;;;5.90;;
2976;SDS011;1498;51.500;7.440;2023-02-26T19:19:19;10.03;;;4.90;;
2976;SDS011;1498;51.500;7.440;2023-02-26T19:21:45;5.50;;;3.40;;
2976;SDS011;1498;51.500;7.440;2023-02-26T19:24:12;8.10;;;3.57;;
2976;SDS011;1498;51.500;7.440;2023-02-26T19:26:38;7.30;;;4.43;;
2976;SDS011;1498;51.500;7.440;2023-02-26T19:29:05;7.63;;;3.70;;
2976;SDS011;1498;51.500;7.440;2023-02-26T19:31:33;9.87;;;3.70;;
2976;SDS011;1498;51.500;7.440;2023-02-26T19:34:00;6.33;;;3.43;;
2976;SDS011;1498;51.500;7.440;2023-02-26T19:36:26;9.00;;;3.63;;
2976;SDS011;1498;51.500;7.440;2023-02-26T19:38:57;7.83;;;3.00;;
2976;SDS011;1498;51.500;7.440;2023-02-26T19:41:26;5.90;;;3.20;;
2976;SDS011;1498;51.500;7.440;2023-02-26T19:43:52;4.90;;;2.97;;
2976;SDS011;1498;51.500;7.440;2023-02-26T19:46:17;7.20;;;2.80;;
2976;SDS011;1498;51.500;7.440;2023-02-26T19:48:43;5.07;;;3.43;;
2976;SDS011;1498;51.500;7.440;2023-02-26T19:51:08;6.73;;;2.57;;
2976;SDS011;1498;51.500;7.440;2023-02-26T19:53:34;4.63;;;2.60;;
2976;SDS011;1498;51.500;7.440;2023-02-26T19:56:00;3.07;;;2.40;;
2976;SDS011;1498;51.500;7.440;2023-02-26T19:58:27;2.70;;;2.27;;
2976;SDS011;1498;51.500;7.440;2023-02-26T20:00:54;4.00;;;2.07;;
2976;SDS011;1498;51.500;7.440;2023-02-26T20:03:21;7.00;;;2.80;;
2976;SDS011;1498;51.500;7.440;2023-02-26T20:05:48;6.53;;;2.93;;
2976;SDS011;1498;51.500;7.440;2023-02-26T20:08:14;6.80;;;2.83;;
2976;SDS011;1498;51.500;7.440;2023-02-26T20:10:39;5.10;;;2.73;;
2976;SDS011;1498;51.500;7.440;2023-02-26T20:13:05;3.97;;;2.23;;
2976;SDS011;1498;51.500;7.440;2023-02-26T20:15:31;2.93;;;2.13;;
2976;SDS011;1498;51.500;7.440;2023-02-26T20:17:57;4.23;;;2.10;;
2976;SDS011;1498;51.500;7.440;2023-02-26T20:20:22;3.20;;;2.30;;
2976;SDS011;1498;51.500;7.440;2023-02-26T20:22:48;5.00;;;2.20;;
2976;SDS011;1498;51.500;7.440;2023-02-26T20:25:14;3.33;;;2.30;;